This is the latest recevied weather packets stored in our database for station/object WC4PEM-15. If no packets are shown the sender has not sent any weather packets the latest 1 day(s).
| Time | Temp. | Humidity | Pressure | Rain* | Wind** | Luminosity | Snow |
|---|---|---|---|---|---|---|---|
| 1836274764 | 23.89° C | 84% | 1016.3 hPa | 0 mm | 1.34 m/s, 76° | - | - |
| 1836274755 | 23.33° C | 88% | 1016.2 hPa | 0 mm | 0.89 m/s, 85° | - | - |
| 1836274579 | 23.89° C | 84% | 1016.3 hPa | 0 mm | 1.34 m/s, 76° | - | - |
| 1836274455 | 23.89° C | 88% | 1016.2 hPa | 0 mm | 0.89 m/s, 178° | - | - |
| 1836274305 | 23.33° C | 88% | 1016.2 hPa | 0 mm | 0.89 m/s, 51° | - | - |
| 1836274283 | 23.89° C | 84% | 1016.3 hPa | 0 mm | 1.34 m/s, 76° | - | - |
| 1836274155 | 23.89° C | 87% | 1016.1 hPa | 0 mm | 0.89 m/s, 63° | - | - |
| 1778035799 | 21.11° C | 75% | 1016.6 hPa | 0 mm | 3.58 m/s, 105° | - | - |
| 1778035499 | 21.11° C | 74% | 1016.6 hPa | 0 mm | 3.58 m/s, 111° | - | - |
| 1778035199 | 21.11° C | 74% | 1016.6 hPa | 0 mm | 3.58 m/s, 100° | - | - |
| 1778034899 | 21.11° C | 74% | 1016.5 hPa | 0 mm | 3.58 m/s, 90° | - | - |
| 1778034635 | 21.67° C | 73% | 1016.3 hPa | 0 mm | 4.02 m/s, 108° | - | - |
| 1778034604 | 21.67° C | 73% | 1016.4 hPa | 0 mm | 4.02 m/s, 84° | - | - |
| 1778034599 | 21.67° C | 74% | 1016.5 hPa | 0 mm | 3.58 m/s, 96° | - | - |
| 1778034299 | 21.67° C | 73% | 1016.4 hPa | 0 mm | 4.02 m/s, 84° | - | - |
| 1778033999 | 21.67° C | 73% | 1016.3 hPa | 0 mm | 4.02 m/s, 108° | - | - |
| 1778033699 | 21.67° C | 73% | 1016.1 hPa | 0 mm | 4.47 m/s, 99° | - | - |
| 1778033403 | 21.67° C | 72% | 1016.1 hPa | 0 mm | 4.02 m/s, 95° | - | - |
| 1778033399 | 21.67° C | 72% | 1016.1 hPa | 0 mm | 4.47 m/s, 103° | - | - |
| 1778033099 | 21.67° C | 72% | 1016.1 hPa | 0 mm | 4.02 m/s, 95° | - | - |
| 1778032799 | 21.67° C | 72% | 1016 hPa | 0 mm | 4.02 m/s, 88° | - | - |
| 1778032691 | 21.67° C | 71% | 1016 hPa | 0 mm | 4.02 m/s, 90° | - | - |
| 1778032499 | 21.67° C | 71% | 1016 hPa | 0 mm | 4.02 m/s, 90° | - | - |
| 1778032407 | 22.22° C | 71% | 1016 hPa | 0 mm | 4.02 m/s, 96° | - | - |
| 1778032204 | 22.22° C | 70% | 1015.8 hPa | 0 mm | 4.02 m/s, 100° | - | - |
* Rain latest hour (hover to see other rain measurements)
** Current wind speed in m/s (hover to see current wind gust speed)